EPLL/LCJ METAR and TAF weather

Enter ICAO airport designator
Station Type Date Time Source
EPLL METAR 2020/02/21 00:00 UTC NOAA

EPLL 210000Z 18005KT 130V210 9999 SCT034 BKN040 02/M02 Q1015


Station Type Date Time Source
EPLL Decoded METAR 2020/02/21 00:00 UTC NOAA

Station name not available
Feb 20, 2020 - 07:00 PM EST / 2020.02.21 0000 UTC
Wind: from the S (180 degrees) at 6 MPH (5 KT) (direction variable):0
Visibility: greater than 7 mile(s):0
Sky conditions: mostly cloudy
Temperature: 35 F (2 C)
Windchill: 30 F (-1 C):1
Dew Point: 28 F (-2 C)
Relative Humidity: 74%
Pressure (altimeter): 29.97 in. Hg (1015 hPa)
ob: EPLL 210000Z 18005KT 130V210 9999 SCT034 BKN040 02/M02 Q1015
cycle: 0

Station Type Date Time Source
EPLL TAF 2020/02/20 18:00 UTC NOAA

TAF EPLL 201730Z 2018/2118 16005KT 9999 BKN030
BECMG 2101/2104 BKN010 BKN014
TEMPO 2105/2116 SHRA BKN008 BKN012CB PROB40
TEMPO 2108/2115 3000 SHGS BKN005 BKN010CB

Example: see airport list